Time;durP1;ratioP1;P1;durP2;ratioP2;P2;SDS_P1;SDS_P2;PMS_P1;PMS_P2;Temp;Humidity;BMP_temperature;BMP_pressure;BME280_temperature;BME280_humidity;BME280_pressure;Samples;Min_cycle;Max_cycle;Signal;HPM_P1;HPM_P2
2021/05/30 00:02:19;;;;;;;5.75;4.05;;;13.40;73.30;;;;;;3574818;40;20118;-68
2021/05/30 00:04:45;;;;;;;5.22;3.90;;;13.30;74.20;;;;;;3578047;40;20076;-67
2021/05/30 00:07:11;;;;;;;7.32;4.50;;;13.30;74.20;;;;;;3577510;40;20047;-68
2021/05/30 00:09:40;;;;;;;8.50;4.10;;;13.30;74.60;;;;;;3577215;40;20046;-67
2021/05/30 00:12:08;;;;;;;7.07;3.97;;;13.40;73.50;;;;;;3575506;40;20032;-67
2021/05/30 00:14:34;;;;;;;5.78;4.53;;;13.40;73.80;;;;;;3573642;40;20044;-73
2021/05/30 00:17:00;;;;;;;6.13;4.22;;;13.40;73.30;;;;;;3572537;40;20033;-71
2021/05/30 00:19:26;;;;;;;4.97;3.53;;;13.30;73.20;;;;;;3571190;40;20025;-71
2021/05/30 00:21:52;;;;;;;6.60;4.03;;;13.10;74.30;;;;;;3570931;40;20489;-71
2021/05/30 00:24:18;;;;;;;5.88;4.20;;;13.00;74.80;;;;;;3574590;40;20044;-71
2021/05/30 00:26:44;;;;;;;6.55;4.68;;;12.90;75.30;;;;;;3577634;40;20036;-71
2021/05/30 00:29:09;;;;;;;6.38;3.75;;;12.80;75.80;;;;;;3577176;39;20080;-72
2021/05/30 00:31:35;;;;;;;6.18;3.97;;;12.70;76.30;;;;;;3579834;40;20132;-74
2021/05/30 00:34:01;;;;;;;5.30;4.18;;;12.70;76.50;;;;;;3579300;40;20040;-67
2021/05/30 00:36:27;;;;;;;7.60;4.85;;;12.60;76.60;;;;;;3573361;40;20429;-67
2021/05/30 00:38:53;;;;;;;6.85;5.10;;;12.60;76.80;;;;;;3576303;40;20032;-67
2021/05/30 00:41:19;;;;;;;5.22;4.13;;;12.50;77.00;;;;;;3577365;40;20039;-67
2021/05/30 00:43:49;;;;;;;6.03;4.05;;;12.50;77.30;;;;;;3579513;40;20024;-67
2021/05/30 00:46:15;;;;;;;7.28;4.57;;;12.40;77.50;;;;;;3580740;40;20074;-67
2021/05/30 00:48:41;;;;;;;8.57;4.95;;;12.30;77.90;;;;;;3578198;40;20064;-67
2021/05/30 00:51:07;;;;;;;7.13;5.18;;;12.20;78.10;;;;;;3575413;40;20040;-68
2021/05/30 00:53:37;;;;;;;6.68;5.00;;;12.10;78.30;;;;;;3576125;40;20325;-67
2021/05/30 00:56:08;;;;;;;8.02;5.43;;;12.10;78.50;;;;;;3577807;40;20682;-67
2021/05/30 00:58:34;;;;;;;7.90;5.50;;;12.00;78.80;;;;;;3580800;40;20409;-68
2021/05/30 01:01:01;;;;;;;7.50;5.65;;;11.90;79.00;;;;;;3579007;40;20045;-67
2021/05/30 01:03:27;;;;;;;11.55;5.88;;;11.90;79.40;;;;;;3577025;40;20037;-67
2021/05/30 01:05:53;;;;;;;8.40;5.68;;;11.80;79.70;;;;;;3575518;40;20056;-67
2021/05/30 01:08:26;;;;;;;10.60;5.60;;;11.70;79.50;;;;;;3573629;40;20021;-68
2021/05/30 01:10:57;;;;;;;8.73;6.00;;;11.60;79.70;;;;;;3570528;40;20075;-67
2021/05/30 01:13:24;;;;;;;9.02;6.38;;;11.60;79.90;;;;;;3571295;40;20778;-67
2021/05/30 01:15:51;;;;;;;8.52;5.47;;;11.50;80.40;;;;;;3574401;40;20033;-68
2021/05/30 01:18:22;;;;;;;8.43;5.43;;;11.40;80.40;;;;;;3574270;40;20064;-67
2021/05/30 01:20:50;;;;;;;8.02;4.97;;;11.30;80.80;;;;;;3575892;40;20125;-68
2021/05/30 01:23:18;;;;;;;8.73;5.43;;;11.30;81.10;;;;;;3579368;40;20386;-71
2021/05/30 01:25:47;;;;;;;9.48;6.10;;;11.20;81.40;;;;;;3573472;40;20131;-67
2021/05/30 01:28:14;;;;;;;7.15;4.97;;;11.20;81.70;;;;;;3577914;40;20867;-67
2021/05/30 01:30:41;;;;;;;9.00;5.63;;;11.10;82.00;;;;;;3576060;40;20036;-68
2021/05/30 01:33:07;;;;;;;6.63;5.13;;;11.10;82.30;;;;;;3574266;40;20403;-67
2021/05/30 01:35:33;;;;;;;7.32;5.78;;;11.10;82.60;;;;;;3571379;40;20117;-67
2021/05/30 01:37:58;;;;;;;6.13;4.90;;;11.10;82.60;;;;;;3570704;40;20013;-67
2021/05/30 01:40:26;;;;;;;9.43;5.53;;;11.10;82.60;;;;;;3571710;40;20032;-67
2021/05/30 01:42:54;;;;;;;8.57;5.57;;;11.10;82.60;;;;;;3575560;40;20047;-67
2021/05/30 01:45:22;;;;;;;8.30;4.93;;;11.00;82.60;;;;;;3566253;40;20032;-68
2021/05/30 01:47:47;;;;;;;7.78;5.55;;;11.00;82.60;;;;;;3573694;40;20433;-67
2021/05/30 01:50:19;;;;;;;6.00;4.95;;;11.00;82.60;;;;;;3571177;40;20032;-68
2021/05/30 01:52:46;;;;;;;8.18;5.07;;;10.90;82.50;;;;;;3571372;40;20057;-68
2021/05/30 01:55:25;;;;;;;7.75;4.75;;;10.90;82.60;;;;;;3576262;40;20105;-66
2021/05/30 01:57:53;;;;;;;7.70;4.53;;;10.80;82.70;;;;;;3573778;40;20021;-67
2021/05/30 02:00:20;;;;;;;8.23;4.75;;;10.80;82.60;;;;;;3573626;40;20036;-67
2021/05/30 02:02:50;;;;;;;10.15;5.13;;;10.80;82.80;;;;;;3577454;40;20037;-67
2021/05/30 02:05:16;;;;;;;6.57;5.00;;;10.70;82.60;;;;;;3579029;40;20064;-68
2021/05/30 02:07:43;;;;;;;6.75;5.10;;;10.60;82.70;;;;;;3570532;40;20044;-67
2021/05/30 02:10:11;;;;;;;6.82;4.68;;;10.60;82.60;;;;;;3574165;40;20037;-67
2021/05/30 02:12:38;;;;;;;6.32;4.70;;;10.60;82.70;;;;;;3575585;40;20024;-68
2021/05/30 02:15:07;;;;;;;7.38;4.95;;;10.50;82.50;;;;;;3574052;40;20131;-67
2021/05/30 02:17:35;;;;;;;7.07;5.32;;;10.40;82.60;;;;;;3570103;40;20071;-68
2021/05/30 02:20:02;;;;;;;8.23;4.85;;;10.40;83.10;;;;;;3572093;40;20036;-67
2021/05/30 02:22:31;;;;;;;8.00;5.60;;;10.40;83.00;;;;;;3574056;40;20029;-67
2021/05/30 02:24:56;;;;;;;9.77;5.47;;;10.30;83.00;;;;;;3572641;40;20107;-68
2021/05/30 02:27:22;;;;;;;8.18;5.13;;;10.30;82.90;;;;;;3571346;40;20518;-67
2021/05/30 02:29:48;;;;;;;7.50;5.30;;;10.30;83.30;;;;;;3573805;40;20035;-68
2021/05/30 02:32:14;;;;;;;7.57;5.18;;;10.20;83.10;;;;;;3569747;40;20116;-67
2021/05/30 02:34:42;;;;;;;8.73;5.43;;;10.20;83.40;;;;;;3575478;40;20485;-67
2021/05/30 02:37:18;;;;;;;8.50;4.90;;;10.20;83.60;;;;;;3572923;40;20025;-68
2021/05/30 02:39:45;;;;;;;8.32;5.05;;;10.20;83.70;;;;;;3574430;40;20041;-67
2021/05/30 02:42:12;;;;;;;6.60;5.03;;;10.20;83.50;;;;;;3571284;40;20037;-67
2021/05/30 02:44:38;;;;;;;7.57;5.40;;;10.20;83.60;;;;;;3569340;40;20031;-68
2021/05/30 02:47:04;;;;;;;6.65;4.88;;;10.20;83.60;;;;;;3572670;40;20032;-67
2021/05/30 02:49:32;;;;;;;7.32;5.28;;;10.20;83.60;;;;;;3573901;40;20021;-67
2021/05/30 02:51:58;;;;;;;8.80;6.00;;;10.30;83.50;;;;;;3574656;40;20051;-67
2021/05/30 02:54:24;;;;;;;7.60;5.75;;;10.20;83.40;;;;;;3575541;40;20689;-68
2021/05/30 02:56:50;;;;;;;7.47;5.85;;;10.20;83.70;;;;;;3575990;40;20033;-68
2021/05/30 02:59:16;;;;;;;7.07;5.25;;;10.20;83.70;;;;;;3572931;40;20415;-67
2021/05/30 03:01:41;;;;;;;8.30;5.65;;;10.20;84.00;;;;;;3573226;40;20051;-67
2021/05/30 03:04:07;;;;;;;7.47;5.00;;;10.10;84.20;;;;;;3573401;40;20095;-68
2021/05/30 03:06:33;;;;;;;7.50;5.03;;;10.10;84.50;;;;;;3573777;40;20159;-67
2021/05/30 03:08:59;;;;;;;8.95;5.45;;;10.20;84.50;;;;;;3572216;40;20017;-67
2021/05/30 03:11:26;;;;;;;7.45;5.55;;;10.20;84.50;;;;;;3572968;40;20042;-68
2021/05/30 03:13:53;;;;;;;9.20;4.97;;;10.20;84.30;;;;;;3573522;40;20032;-67
2021/05/30 03:16:19;;;;;;;6.85;5.50;;;10.10;84.00;;;;;;3574249;40;20110;-67
2021/05/30 03:18:45;;;;;;;8.50;5.65;;;10.10;83.90;;;;;;3574810;40;20479;-67
2021/05/30 03:21:12;;;;;;;9.75;5.85;;;10.10;83.60;;;;;;3573644;40;20037;-68
2021/05/30 03:23:37;;;;;;;8.30;6.35;;;10.10;83.50;;;;;;3572197;40;20040;-67
2021/05/30 03:26:03;;;;;;;10.98;6.53;;;10.00;83.70;;;;;;3574128;40;20030;-68
2021/05/30 03:28:29;;;;;;;11.23;6.15;;;10.00;83.90;;;;;;3572031;40;20470;-67
2021/05/30 03:30:55;;;;;;;11.13;6.03;;;10.00;83.90;;;;;;3572567;40;20033;-68
2021/05/30 03:33:21;;;;;;;8.95;5.57;;;9.90;83.80;;;;;;3575066;40;20075;-67
2021/05/30 03:35:47;;;;;;;9.43;5.80;;;9.90;83.70;;;;;;3570622;40;20308;-67
2021/05/30 03:38:15;;;;;;;9.32;5.97;;;9.90;83.90;;;;;;3571547;40;20041;-66
2021/05/30 03:43:08;;;;;;;9.90;6.63;;;9.90;84.40;;;;;;3572867;40;20766;-66
2021/05/30 03:45:34;;;;;;;9.38;6.07;;;9.90;84.50;;;;;;3564609;40;20078;-68
2021/05/30 03:47:59;;;;;;;10.90;7.00;;;9.90;84.80;;;;;;3572626;40;20064;-66
2021/05/30 03:50:26;;;;;;;10.43;6.60;;;9.90;84.80;;;;;;3579527;40;20418;-68
2021/05/30 03:52:52;;;;;;;9.18;5.63;;;9.90;84.60;;;;;;3573328;40;20033;-67
2021/05/30 03:55:19;;;;;;;8.85;6.25;;;9.90;84.70;;;;;;3575061;40;20118;-68
2021/05/30 03:57:46;;;;;;;8.95;6.80;;;9.90;84.80;;;;;;3573981;40;20036;-66
2021/05/30 04:00:15;;;;;;;7.70;5.85;;;10.00;84.90;;;;;;3573580;40;20028;-68
2021/05/30 04:02:41;;;;;;;8.48;6.47;;;10.00;84.90;;;;;;3576177;40;20131;-68
2021/05/30 04:05:08;;;;;;;9.85;6.40;;;10.00;84.70;;;;;;3573281;40;20494;-68
2021/05/30 04:07:33;;;;;;;9.82;6.15;;;10.00;84.60;;;;;;3572799;40;20130;-64
2021/05/30 04:10:10;;;;;;;11.93;7.70;;;10.00;84.50;;;;;;3576954;40;20084;-65
2021/05/30 04:12:41;;;;;;;9.10;6.50;;;10.10;84.80;;;;;;3574593;40;20049;-65
2021/05/30 04:15:09;;;;;;;11.43;7.57;;;10.00;84.60;;;;;;3573625;40;20029;-65
2021/05/30 04:17:35;;;;;;;9.90;6.68;;;10.10;84.90;;;;;;3571356;40;20029;-65
2021/05/30 04:20:00;;;;;;;8.85;6.63;;;10.10;85.00;;;;;;3575201;40;20027;-65
2021/05/30 04:22:26;;;;;;;11.35;7.75;;;10.10;85.20;;;;;;3574747;40;20065;-64
2021/05/30 04:24:52;;;;;;;11.25;7.57;;;10.10;85.40;;;;;;3574766;40;20302;-65
2021/05/30 04:27:18;;;;;;;13.20;7.88;;;10.20;85.50;;;;;;3573622;40;20039;-66
2021/05/30 04:29:44;;;;;;;11.82;8.10;;;10.20;85.40;;;;;;3574148;40;20018;-64
2021/05/30 04:32:09;;;;;;;10.45;7.32;;;10.20;85.90;;;;;;3575838;40;20040;-64
2021/05/30 04:34:35;;;;;;;12.77;7.78;;;10.30;86.20;;;;;;3576189;40;20036;-65
2021/05/30 04:37:01;;;;;;;11.10;7.10;;;10.30;86.30;;;;;;3574751;40;20045;-65
2021/05/30 04:39:31;;;;;;;10.98;7.72;;;10.40;86.40;;;;;;3573848;40;20083;-65
2021/05/30 04:41:57;;;;;;;13.85;8.02;;;10.40;86.50;;;;;;3577662;40;20037;-65
2021/05/30 04:44:23;;;;;;;10.57;7.18;;;10.50;86.40;;;;;;3580983;40;20464;-65
2021/05/30 04:46:48;;;;;;;12.40;7.60;;;10.50;86.60;;;;;;3574424;40;20037;-65
2021/05/30 04:49:14;;;;;;;13.23;8.25;;;10.70;86.70;;;;;;3575631;40;20035;-65
2021/05/30 04:51:40;;;;;;;12.27;7.68;;;10.80;86.60;;;;;;3575173;40;20771;-65
2021/05/30 04:54:06;;;;;;;11.93;8.10;;;10.90;86.60;;;;;;3576045;40;20028;-66
2021/05/30 04:56:32;;;;;;;10.43;7.20;;;11.00;86.50;;;;;;3578395;40;20040;-65
2021/05/30 04:58:58;;;;;;;13.90;7.88;;;11.20;86.30;;;;;;3572078;40;20032;-64
2021/05/30 05:01:23;;;;;;;11.63;7.18;;;11.50;85.70;;;;;;3573206;40;20022;-65
2021/05/30 05:03:50;;;;;;;9.23;6.97;;;11.60;85.90;;;;;;3573772;40;20137;-65
2021/05/30 05:06:16;;;;;;;9.63;6.95;;;11.70;84.60;;;;;;3576206;40;20029;-65
2021/05/30 05:08:42;;;;;;;11.32;7.18;;;11.80;84.10;;;;;;3578914;40;20041;-65
2021/05/30 05:11:09;;;;;;;9.65;6.47;;;11.90;84.20;;;;;;3573930;40;20153;-65
2021/05/30 05:13:35;;;;;;;9.88;6.05;;;12.10;83.60;;;;;;3576721;40;20025;-65
2021/05/30 05:16:01;;;;;;;7.15;4.85;;;12.10;82.40;;;;;;3574040;40;20139;-65
2021/05/30 05:18:30;;;;;;;8.50;5.18;;;12.30;79.90;;;;;;3573407;40;20682;-65
2021/05/30 05:20:55;;;;;;;5.63;4.70;;;12.50;80.00;;;;;;3574868;40;20505;-66
2021/05/30 05:23:23;;;;;;;8.15;5.10;;;12.80;76.90;;;;;;3572352;40;20040;-65
2021/05/30 05:25:57;;;;;;;6.55;4.80;;;12.80;77.90;;;;;;3576843;40;20033;-65
2021/05/30 05:28:23;;;;;;;8.82;5.13;;;12.90;78.60;;;;;;3574409;40;20395;-64
2021/05/30 05:30:52;;;;;;;4.93;4.38;;;13.20;78.20;;;;;;3573488;40;20033;-66
2021/05/30 05:33:19;;;;;;;6.32;4.30;;;13.50;77.30;;;;;;3574055;40;20150;-65
2021/05/30 05:35:45;;;;;;;5.82;4.28;;;13.60;75.20;;;;;;3574911;40;20020;-65
2021/05/30 05:38:11;;;;;;;4.78;3.72;;;13.90;73.60;;;;;;3572812;40;20093;-64
2021/05/30 05:40:37;;;;;;;5.78;3.75;;;14.20;72.50;;;;;;3573467;40;20294;-65
2021/05/30 05:43:04;;;;;;;5.22;3.38;;;14.60;72.00;;;;;;3573056;40;20033;-65
2021/05/30 05:45:31;;;;;;;6.78;3.60;;;15.00;71.10;;;;;;3573466;40;20739;-65
2021/05/30 05:47:58;;;;;;;3.50;3.20;;;15.30;69.10;;;;;;3579320;40;20368;-65
2021/05/30 05:50:24;;;;;;;4.60;3.05;;;15.40;62.20;;;;;;3578304;40;20033;-64
2021/05/30 05:52:51;;;;;;;3.88;2.75;;;15.50;61.40;;;;;;3578484;40;20066;-65
2021/05/30 05:55:18;;;;;;;6.03;3.15;;;15.60;61.60;;;;;;3575267;40;20041;-65
2021/05/30 05:57:47;;;;;;;3.55;2.80;;;15.90;64.80;;;;;;3573668;40;20039;-65
2021/05/30 06:00:15;;;;;;;5.45;2.60;;;16.10;64.60;;;;;;3574839;40;20041;-65
2021/05/30 06:02:46;;;;;;;3.47;2.33;;;16.20;60.10;;;;;;3573834;40;20041;-65
2021/05/30 06:05:19;;;;;;;2.85;2.35;;;16.40;59.00;;;;;;3575211;40;20044;-65
2021/05/30 06:07:47;;;;;;;5.28;2.13;;;16.60;57.20;;;;;;3573100;40;20033;-66
2021/05/30 06:10:14;;;;;;;3.10;2.35;;;16.70;57.90;;;;;;3574369;40;20045;-65
2021/05/30 06:12:42;;;;;;;4.60;2.22;;;16.70;58.30;;;;;;3572781;40;20037;-65
2021/05/30 06:15:08;;;;;;;3.30;2.40;;;16.80;56.70;;;;;;3574164;40;20119;-65
2021/05/30 06:17:34;;;;;;;6.80;2.33;;;16.80;56.30;;;;;;3579405;40;20365;-65
2021/05/30 06:20:00;;;;;;;4.22;2.20;;;16.80;56.80;;;;;;3572994;40;20072;-65
2021/05/30 06:22:27;;;;;;;6.57;2.30;;;16.80;57.30;;;;;;3575405;40;20118;-65
2021/05/30 06:24:53;;;;;;;4.20;2.22;;;16.80;55.60;;;;;;3574536;40;20105;-66
2021/05/30 06:27:19;;;;;;;4.53;2.28;;;16.90;55.40;;;;;;3572731;40;20299;-68
2021/05/30 06:29:45;;;;;;;4.88;2.33;;;17.00;55.50;;;;;;3570088;40;20114;-65
2021/05/30 06:32:10;;;;;;;2.65;2.05;;;17.10;54.30;;;;;;3572190;40;20126;-65
2021/05/30 06:34:36;;;;;;;5.72;2.45;;;17.00;53.90;;;;;;3573848;40;20039;-66
2021/05/30 06:37:02;;;;;;;5.28;1.85;;;17.00;51.30;;;;;;3575435;40;20025;-65
2021/05/30 06:39:27;;;;;;;4.05;2.00;;;16.90;50.30;;;;;;3572901;40;20025;-65
2021/05/30 06:41:54;;;;;;;6.13;2.05;;;17.20;49.60;;;;;;3577758;40;20049;-65
2021/05/30 06:44:20;;;;;;;4.00;2.25;;;17.30;50.10;;;;;;3571752;40;20037;-65
2021/05/30 06:46:46;;;;;;;2.60;2.00;;;17.20;48.60;;;;;;3575427;40;20040;-65
2021/05/30 06:49:12;;;;;;;4.18;1.98;;;17.00;49.60;;;;;;3572586;40;20181;-65
2021/05/30 06:51:37;;;;;;;4.25;2.10;;;17.00;50.30;;;;;;3572260;40;20396;-64
2021/05/30 06:54:05;;;;;;;5.03;1.90;;;17.00;49.40;;;;;;3575910;40;20085;-65
2021/05/30 06:56:31;;;;;;;3.13;1.70;;;16.80;48.70;;;;;;3575089;40;20679;-65
2021/05/30 06:58:59;;;;;;;7.53;2.33;;;16.80;49.10;;;;;;3573612;40;20033;-66
2021/05/30 07:01:25;;;;;;;5.03;2.53;;;16.70;49.90;;;;;;3569861;40;20169;-65
2021/05/30 07:03:52;;;;;;;4.55;1.90;;;16.80;50.60;;;;;;3574447;40;20029;-65
2021/05/30 07:06:18;;;;;;;2.05;1.55;;;16.80;50.00;;;;;;3571531;40;20176;-65
2021/05/30 07:08:44;;;;;;;5.00;2.17;;;16.90;50.90;;;;;;3573785;40;20028;-66
2021/05/30 07:11:12;;;;;;;3.78;1.77;;;17.00;48.90;;;;;;3577567;40;20077;-66
2021/05/30 07:13:39;;;;;;;2.67;1.85;;;17.10;48.40;;;;;;3576145;40;20060;-65
2021/05/30 07:16:05;;;;;;;3.53;1.80;;;17.20;50.00;;;;;;3574631;40;20041;-65
2021/05/30 07:18:31;;;;;;;2.85;1.88;;;17.20;47.20;;;;;;3575120;40;20044;-65
2021/05/30 07:20:57;;;;;;;4.00;1.73;;;17.30;46.10;;;;;;3579635;40;20106;-66
2021/05/30 07:23:23;;;;;;;2.60;1.60;;;17.30;45.70;;;;;;3578602;40;20028;-65
2021/05/30 07:25:54;;;;;;;3.33;2.10;;;17.30;47.10;;;;;;3571779;40;20138;-67
2021/05/30 07:28:21;;;;;;;5.13;2.03;;;17.40;46.70;;;;;;3575042;40;20164;-65
2021/05/30 07:30:48;;;;;;;5.55;2.00;;;17.50;46.70;;;;;;3574098;40;20037;-66
2021/05/30 07:33:14;;;;;;;5.82;2.42;;;17.60;45.70;;;;;;3578552;40;20036;-65
2021/05/30 07:35:39;;;;;;;3.63;1.92;;;17.70;46.60;;;;;;3574839;40;20133;-65
2021/05/30 07:38:05;;;;;;;2.97;1.55;;;17.70;46.70;;;;;;3575898;40;20028;-65
2021/05/30 07:40:33;;;;;;;4.90;2.17;;;17.80;45.30;;;;;;3573245;40;20033;-65
2021/05/30 07:43:00;;;;;;;2.40;1.80;;;17.80;45.90;;;;;;3575380;40;20041;-65
2021/05/30 07:45:27;;;;;;;3.85;2.05;;;17.80;45.20;;;;;;3577297;40;20053;-65
2021/05/30 07:47:53;;;;;;;2.45;1.35;;;17.90;46.00;;;;;;3573823;40;20403;-65
2021/05/30 07:50:20;;;;;;;4.07;1.67;;;18.00;45.80;;;;;;3573167;40;20185;-65
2021/05/30 07:52:46;;;;;;;3.83;1.90;;;18.00;46.10;;;;;;3571185;40;20062;-65
2021/05/30 07:55:12;;;;;;;3.50;1.92;;;18.10;45.80;;;;;;3574175;40;20029;-65
2021/05/30 07:57:38;;;;;;;5.32;2.10;;;18.30;44.60;;;;;;3573793;40;20017;-65
2021/05/30 08:00:08;;;;;;;2.45;1.73;;;18.20;42.80;;;;;;3569618;40;20612;-65
2021/05/30 08:02:38;;;;;;;3.35;1.77;;;18.20;42.30;;;;;;3576055;40;20083;-65
2021/05/30 08:05:06;;;;;;;6.63;1.55;;;18.20;42.40;;;;;;3572461;40;20677;-64
2021/05/30 08:07:32;;;;;;;2.95;1.60;;;18.20;42.10;;;;;;3573408;40;20041;-64
2021/05/30 08:09:58;;;;;;;2.72;1.30;;;18.30;42.20;;;;;;3574699;40;20072;-65
2021/05/30 08:12:24;;;;;;;4.20;1.70;;;18.40;42.60;;;;;;3572937;40;20122;-65
2021/05/30 08:14:50;;;;;;;3.53;1.63;;;18.50;44.20;;;;;;3575533;40;20039;-65
2021/05/30 08:17:17;;;;;;;3.38;1.75;;;18.60;42.20;;;;;;3572538;40;20410;-64
2021/05/30 08:19:42;;;;;;;2.67;1.83;;;18.60;41.70;;;;;;3575823;40;20036;-64
2021/05/30 08:22:09;;;;;;;3.42;1.38;;;18.70;42.60;;;;;;3572345;40;20025;-63
2021/05/30 08:24:37;;;;;;;3.50;1.60;;;18.80;42.10;;;;;;3572370;40;20117;-66
2021/05/30 08:27:03;;;;;;;7.93;1.80;;;18.90;41.90;;;;;;3573750;40;20483;-66
2021/05/30 08:29:29;;;;;;;4.63;2.20;;;19.10;42.10;;;;;;3571134;40;20179;-65
2021/05/30 08:31:55;;;;;;;5.15;2.63;;;19.20;42.10;;;;;;3573554;40;20044;-66
2021/05/30 08:34:22;;;;;;;3.60;1.50;;;19.20;41.60;;;;;;3574031;40;20035;-65
2021/05/30 08:36:48;;;;;;;4.75;1.73;;;19.30;41.90;;;;;;3574776;40;20032;-64
2021/05/30 08:39:15;;;;;;;3.45;1.60;;;19.50;41.00;;;;;;3576581;40;20115;-65
2021/05/30 08:41:42;;;;;;;3.78;1.40;;;19.60;40.60;;;;;;3576044;40;20037;-65
2021/05/30 08:44:09;;;;;;;2.70;1.30;;;19.70;40.30;;;;;;3576743;40;20039;-66
2021/05/30 08:46:35;;;;;;;4.20;1.60;;;19.70;40.00;;;;;;3576104;40;20033;-65
2021/05/30 08:49:01;;;;;;;1.98;1.30;;;19.70;40.40;;;;;;3574498;40;20141;-64
2021/05/30 08:51:28;;;;;;;3.85;1.50;;;19.60;39.70;;;;;;3573698;40;20037;-66
2021/05/30 08:53:53;;;;;;;3.25;1.60;;;19.60;41.00;;;;;;3578873;40;20052;-67
2021/05/30 08:56:19;;;;;;;3.88;1.50;;;19.70;39.90;;;;;;3572486;40;20118;-63
2021/05/30 08:58:48;;;;;;;3.15;1.40;;;19.80;40.70;;;;;;3572400;40;20049;-65
2021/05/30 09:01:14;;;;;;;3.22;1.42;;;19.70;39.30;;;;;;3572306;40;20033;-65
2021/05/30 09:04:07;;;;;;;2.55;1.58;;;19.70;40.80;;;;;;3575553;40;20796;-65
2021/05/30 09:06:34;;;;;;;2.47;1.40;;;19.80;40.70;;;;;;3571307;40;20058;-65
2021/05/30 09:09:02;;;;;;;2.20;1.33;;;20.00;40.30;;;;;;3575824;40;20430;-65
2021/05/30 09:11:46;;;;;;;4.10;1.50;;;20.10;39.90;;;;;;3575445;40;20714;-65
2021/05/30 09:14:15;;;;;;;3.03;1.42;;;20.10;38.30;;;;;;3572917;40;20086;-64
2021/05/30 09:16:57;;;;;;;4.60;1.50;;;20.10;39.10;;;;;;3574151;40;20033;-71
2021/05/30 09:19:35;;;;;;;3.47;1.60;;;20.10;37.40;;;;;;3574437;40;20036;-66
2021/05/30 09:22:18;;;;;;;3.25;1.25;;;20.00;39.50;;;;;;3573066;40;20323;-67
2021/05/30 09:24:50;;;;;;;3.15;1.50;;;20.10;40.50;;;;;;3571375;40;20048;-67
2021/05/30 09:27:21;;;;;;;3.15;1.33;;;20.20;39.30;;;;;;3575617;40;20044;-67
2021/05/30 09:30:13;;;;;;;3.40;1.45;;;20.30;40.60;;;;;;3571957;40;20052;-67
2021/05/30 09:32:54;;;;;;;4.22;1.50;;;20.30;39.30;;;;;;3573171;40;20694;-67
2021/05/30 09:35:25;;;;;;;7.63;2.30;;;20.40;40.50;;;;;;3572783;40;20721;-67
2021/05/30 09:38:07;;;;;;;1.67;1.33;;;20.50;39.60;;;;;;3573999;40;20029;-67
2021/05/30 09:40:35;;;;;;;6.28;1.40;;;20.60;40.70;;;;;;3571336;40;20096;-66
2021/05/30 09:43:08;;;;;;;3.40;1.55;;;20.60;39.00;;;;;;3574746;40;20036;-64
2021/05/30 09:45:35;;;;;;;3.70;2.13;;;20.60;38.00;;;;;;3570819;40;20033;-66
2021/05/30 09:48:02;;;;;;;1.40;1.25;;;20.60;40.00;;;;;;3574800;40;20025;-66
2021/05/30 09:50:33;;;;;;;4.78;1.50;;;20.70;39.30;;;;;;3577893;40;20129;-66
2021/05/30 09:53:01;;;;;;;1.88;1.38;;;20.80;39.00;;;;;;3571882;40;20415;-66
2021/05/30 09:55:34;;;;;;;3.22;1.38;;;20.90;37.70;;;;;;3573949;40;20033;-65
2021/05/30 09:58:18;;;;;;;2.72;1.70;;;20.90;37.50;;;;;;3574547;40;20126;-64
2021/05/30 10:00:53;;;;;;;5.13;1.60;;;21.10;37.70;;;;;;3573153;40;20068;-67
2021/05/30 10:03:19;;;;;;;2.37;1.33;;;20.90;36.40;;;;;;3574811;40;20052;-67
2021/05/30 10:05:46;;;;;;;3.30;1.40;;;20.90;37.50;;;;;;3571097;40;20086;-68
2021/05/30 10:08:13;;;;;;;4.80;1.60;;;20.80;37.20;;;;;;3581562;40;20033;-66
2021/05/30 10:10:39;;;;;;;3.65;1.40;;;20.90;38.10;;;;;;3573942;40;20045;-65
2021/05/30 10:13:05;;;;;;;3.80;1.52;;;20.90;38.60;;;;;;3571742;40;20121;-67
2021/05/30 10:15:31;;;;;;;4.10;1.48;;;20.90;38.30;;;;;;3573013;40;20138;-66
2021/05/30 10:18:26;;;;;;;17.30;6.88;;;21.00;39.30;;;;;;3576818;40;20033;-68
2021/05/30 10:20:54;;;;;;;3.72;1.65;;;21.00;38.30;;;;;;3574222;40;20048;-66
2021/05/30 10:23:21;;;;;;;2.90;1.67;;;21.10;37.40;;;;;;3573337;40;20063;-66
2021/05/30 10:25:48;;;;;;;3.30;1.50;;;21.20;38.60;;;;;;3575679;40;20036;-66
2021/05/30 10:28:19;;;;;;;2.90;1.60;;;21.30;37.10;;;;;;3575701;40;20033;-68
2021/05/30 10:30:48;;;;;;;3.20;1.52;;;21.50;37.40;;;;;;3571632;40;20052;-67
2021/05/30 10:33:26;;;;;;;2.38;1.35;;;21.80;37.80;;;;;;3575303;40;20025;-65
2021/05/30 10:35:54;;;;;;;2.60;1.48;;;21.90;36.60;;;;;;3575733;40;20130;-67
2021/05/30 10:38:35;;;;;;;3.28;1.52;;;21.90;36.90;;;;;;3572377;40;20057;-66
2021/05/30 10:41:23;;;;;;;4.75;1.73;;;21.80;36.30;;;;;;3577372;40;20036;-66
2021/05/30 10:43:49;;;;;;;2.97;1.73;;;21.80;37.00;;;;;;3577398;40;20618;-66
2021/05/30 10:46:18;;;;;;;2.25;1.40;;;21.70;38.20;;;;;;3576104;40;20108;-66
2021/05/30 10:49:04;;;;;;;4.30;1.50;;;21.70;37.20;;;;;;3573846;40;20047;-66
2021/05/30 10:51:45;;;;;;;2.05;1.40;;;21.70;36.20;;;;;;3574065;40;20073;-66
2021/05/30 10:54:12;;;;;;;3.38;1.48;;;21.80;37.40;;;;;;3569844;40;20033;-67
2021/05/30 10:56:56;;;;;;;2.58;1.63;;;21.90;36.40;;;;;;3569844;40;20037;-67
2021/05/30 10:59:23;;;;;;;2.83;1.60;;;21.90;35.80;;;;;;3571804;40;20048;-66
2021/05/30 11:01:51;;;;;;;2.15;1.55;;;21.80;37.00;;;;;;3572210;40;20033;-66
2021/05/30 11:04:23;;;;;;;4.85;1.67;;;21.90;37.30;;;;;;3574786;40;20713;-66
2021/05/30 11:06:57;;;;;;;4.10;1.48;;;22.00;38.10;;;;;;3575937;40;20048;-67
2021/05/30 11:09:23;;;;;;;4.05;1.60;;;22.10;36.90;;;;;;3574709;40;20033;-68
2021/05/30 11:12:17;;;;;;;2.33;1.30;;;22.20;37.10;;;;;;3571927;40;20048;-66
2021/05/30 11:15:07;;;;;;;4.10;1.67;;;22.10;37.00;;;;;;3574704;40;20033;-67
2021/05/30 11:17:39;;;;;;;5.97;2.15;;;22.10;37.80;;;;;;3575338;40;20052;-66
2021/05/30 11:20:08;;;;;;;3.15;1.63;;;22.00;36.80;;;;;;3574600;40;20034;-67
2021/05/30 11:22:53;;;;;;;3.20;1.58;;;22.00;37.00;;;;;;3574741;40;20759;-67
2021/05/30 11:25:41;;;;;;;2.55;1.40;;;22.00;36.50;;;;;;3574772;40;20061;-64
2021/05/30 11:28:08;;;;;;;4.88;1.60;;;22.00;36.80;;;;;;3572222;40;20033;-63
2021/05/30 11:30:48;;;;;;;2.35;1.40;;;22.00;35.70;;;;;;3574869;40;20032;-62
2021/05/30 11:33:22;;;;;;;2.10;1.48;;;21.70;35.80;;;;;;3572786;40;20028;-67
2021/05/30 11:35:57;;;;;;;3.28;1.58;;;21.70;36.60;;;;;;3571332;40;20068;-68
2021/05/30 11:38:54;;;;;;;4.40;1.42;;;21.70;36.30;;;;;;3573951;40;20010;-67
2021/05/30 11:41:26;;;;;;;2.25;1.30;;;21.90;37.10;;;;;;3573064;40;20820;-63
2021/05/30 11:44:02;;;;;;;3.10;1.50;;;22.00;37.40;;;;;;3575855;40;20033;-64
2021/05/30 11:46:31;;;;;;;5.55;1.73;;;22.20;38.40;;;;;;3576826;40;20068;-63
2021/05/30 11:49:03;;;;;;;2.58;1.50;;;22.40;36.30;;;;;;3576981;40;20058;-64
2021/05/30 11:51:52;;;;;;;2.88;1.60;;;22.30;36.10;;;;;;3572638;40;20028;-62
2021/05/30 11:54:20;;;;;;;2.78;1.38;;;22.30;36.70;;;;;;3571062;40;20416;-67
2021/05/30 11:56:49;;;;;;;2.00;1.40;;;22.30;36.10;;;;;;3572988;40;20090;-64
2021/05/30 11:59:15;;;;;;;6.13;2.38;;;22.40;37.40;;;;;;3571922;40;20032;-64
2021/05/30 12:01:46;;;;;;;6.88;3.60;;;22.40;37.10;;;;;;3571441;40;20029;-63
2021/05/30 12:04:39;;;;;;;4.65;1.48;;;22.40;38.10;;;;;;3575778;40;20538;-63
2021/05/30 12:07:10;;;;;;;2.78;1.60;;;22.50;36.50;;;;;;3575276;40;20041;-65
2021/05/30 12:09:43;;;;;;;3.78;1.63;;;22.50;37.50;;;;;;3575835;40;20029;-66
2021/05/30 12:12:27;;;;;;;3.15;1.80;;;22.40;37.00;;;;;;3574632;40;20322;-68
2021/05/30 12:14:53;;;;;;;5.00;1.83;;;22.30;36.60;;;;;;3577213;40;20036;-68
2021/05/30 12:17:19;;;;;;;4.22;1.77;;;22.20;35.60;;;;;;3578588;40;20041;-67
2021/05/30 12:19:45;;;;;;;1.65;1.23;;;22.10;37.90;;;;;;3575839;40;20615;-68
2021/05/30 12:22:25;;;;;;;3.25;1.63;;;22.20;36.20;;;;;;3574719;40;20552;-67
2021/05/30 12:24:52;;;;;;;2.03;1.40;;;22.10;35.90;;;;;;3572031;40;20439;-68
2021/05/30 12:27:19;;;;;;;3.40;1.50;;;22.20;37.40;;;;;;3579994;40;20031;-68
2021/05/30 12:29:49;;;;;;;4.35;1.58;;;22.10;34.80;;;;;;3573806;40;20092;-68
2021/05/30 12:32:20;;;;;;;3.22;1.50;;;22.30;38.30;;;;;;3574284;40;20041;-67
2021/05/30 12:34:46;;;;;;;2.17;1.52;;;22.60;35.00;;;;;;3575269;40;20036;-68
2021/05/30 12:37:12;;;;;;;4.85;1.90;;;22.60;36.10;;;;;;3576723;40;20055;-68
2021/05/30 12:39:38;;;;;;;2.50;1.63;;;22.60;36.90;;;;;;3571842;40;20320;-69
2021/05/30 12:42:10;;;;;;;3.85;1.70;;;22.50;34.50;;;;;;3571025;40;20292;-68
2021/05/30 12:44:55;;;;;;;3.03;1.60;;;22.30;36.30;;;;;;3572091;40;20073;-68
2021/05/30 12:47:31;;;;;;;2.63;1.23;;;22.10;37.40;;;;;;3576637;40;20655;-68
2021/05/30 12:49:59;;;;;;;2.00;1.38;;;22.10;37.60;;;;;;3574086;40;20657;-68
2021/05/30 12:52:27;;;;;;;2.35;1.70;;;22.20;37.50;;;;;;3571762;40;20593;-68
2021/05/30 12:55:06;;;;;;;2.20;1.40;;;22.50;37.60;;;;;;3571137;40;20412;-69
2021/05/30 12:57:37;;;;;;;4.35;2.00;;;22.80;36.10;;;;;;3572648;40;20111;-69